createdAt,value
2022-12-06T00:01:32.511Z,3.53
2022-12-06T00:04:02.037Z,3.73
2022-12-06T00:06:30.760Z,3.40
2022-12-06T00:08:58.132Z,3.90
2022-12-06T00:11:27.517Z,3.20
2022-12-06T00:13:56.201Z,3.87
2022-12-06T00:16:24.128Z,4.97
2022-12-06T00:18:51.727Z,4.23
2022-12-06T00:21:21.184Z,3.83
2022-12-06T00:23:51.419Z,4.40
2022-12-06T00:26:19.040Z,4.10
2022-12-06T00:28:46.031Z,4.07
2022-12-06T00:31:16.163Z,4.23
2022-12-06T00:33:43.021Z,4.27
2022-12-06T00:36:30.276Z,4.73
2022-12-06T00:39:02.286Z,4.03
2022-12-06T00:41:28.981Z,4.10
2022-12-06T00:43:55.776Z,3.57
2022-12-06T00:46:28.413Z,4.50
2022-12-06T00:48:56.728Z,4.67
2022-12-06T00:51:25.213Z,4.70
2022-12-06T00:53:52.562Z,4.60
2022-12-06T00:56:19.573Z,4.43
2022-12-06T00:58:46.890Z,4.67
2022-12-06T01:01:20.193Z,4.97
2022-12-06T01:03:51.320Z,4.40
2022-12-06T01:06:19.037Z,5.20
2022-12-06T01:08:45.637Z,5.40
2022-12-06T01:11:15.288Z,5.60
2022-12-06T01:13:42.805Z,5.23
2022-12-06T01:16:14.024Z,4.57
2022-12-06T01:18:42.182Z,4.87
2022-12-06T01:21:14.403Z,4.97
2022-12-06T01:23:41.216Z,6.40
2022-12-06T01:26:14.652Z,5.47
2022-12-06T01:28:41.167Z,5.50
2022-12-06T01:31:08.171Z,5.83
2022-12-06T01:33:35.182Z,4.93
2022-12-06T01:36:02.217Z,5.53
2022-12-06T01:38:28.896Z,5.53
2022-12-06T01:40:55.817Z,6.47
2022-12-06T01:43:34.860Z,6.23
2022-12-06T01:46:24.130Z,6.60
2022-12-06T01:48:55.411Z,5.40
2022-12-06T01:51:22.448Z,5.80
2022-12-06T01:53:52.176Z,5.73
2022-12-06T01:56:19.909Z,5.00
2022-12-06T01:58:49.863Z,7.27
2022-12-06T02:01:16.449Z,6.43
2022-12-06T02:03:44.603Z,6.13
2022-12-06T02:06:11.436Z,6.60
2022-12-06T02:08:39.322Z,6.80
2022-12-06T02:11:06.115Z,6.07
2022-12-06T02:13:34.811Z,7.03
2022-12-06T02:16:13.691Z,6.23
2022-12-06T02:19:31.150Z,7.23
2022-12-06T02:22:11.069Z,6.10
2022-12-06T02:24:57.336Z,7.00
2022-12-06T02:27:29.973Z,6.50
2022-12-06T02:30:18.776Z,6.80
2022-12-06T02:32:57.103Z,6.17
2022-12-06T02:35:44.013Z,6.40
2022-12-06T02:38:35.120Z,7.10
2022-12-06T02:41:08.332Z,7.93
2022-12-06T02:43:43.826Z,6.53
2022-12-06T02:46:13.364Z,6.83
2022-12-06T02:48:41.888Z,8.10
2022-12-06T02:51:14.064Z,6.23
2022-12-06T02:53:46.764Z,6.97
2022-12-06T02:56:16.754Z,7.13
2022-12-06T02:58:43.845Z,7.60
2022-12-06T03:01:14.550Z,7.17
2022-12-06T03:04:18.290Z,6.27
2022-12-06T03:07:08.401Z,7.07
2022-12-06T03:10:09.034Z,6.53
2022-12-06T03:13:09.664Z,6.23
2022-12-06T03:16:02.108Z,6.20
2022-12-06T03:18:42.099Z,6.07
2022-12-06T03:21:14.016Z,5.50
2022-12-06T03:23:44.248Z,6.20
2022-12-06T03:26:16.567Z,6.10
2022-12-06T03:28:46.893Z,5.73
2022-12-06T03:31:14.580Z,6.67
2022-12-06T03:33:49.645Z,6.30
2022-12-06T03:36:18.450Z,7.60
2022-12-06T03:39:00.729Z,6.33
2022-12-06T03:41:33.472Z,6.03
2022-12-06T03:44:00.360Z,6.47
2022-12-06T03:46:34.121Z,5.50
2022-12-06T03:49:14.305Z,5.40
2022-12-06T03:51:43.171Z,6.00
2022-12-06T03:54:10.936Z,6.10
2022-12-06T03:56:38.659Z,5.80
2022-12-06T03:59:10.581Z,5.07
2022-12-06T04:01:38.105Z,5.57
2022-12-06T04:04:05.379Z,5.20
2022-12-06T04:06:32.011Z,5.60
2022-12-06T04:09:18.525Z,6.80
2022-12-06T04:11:45.710Z,4.73
2022-12-06T04:14:12.423Z,5.10
2022-12-06T04:16:57.380Z,5.30
2022-12-06T04:19:24.038Z,6.40
2022-12-06T04:22:09.104Z,5.50
2022-12-06T04:24:35.883Z,5.70
2022-12-06T04:27:22.413Z,5.77
2022-12-06T04:30:07.706Z,5.80
2022-12-06T04:32:52.924Z,6.00
2022-12-06T04:35:38.233Z,5.80
2022-12-06T04:38:23.546Z,5.40
2022-12-06T04:40:50.481Z,5.00
2022-12-06T04:43:35.561Z,5.27
2022-12-06T04:46:02.202Z,6.73
2022-12-06T04:48:28.724Z,6.23
2022-12-06T04:50:55.269Z,5.57
2022-12-06T04:53:21.857Z,5.70
2022-12-06T04:55:49.776Z,5.10
2022-12-06T04:58:16.388Z,5.97
2022-12-06T05:00:47.734Z,5.63
2022-12-06T05:03:15.166Z,5.60
2022-12-06T05:05:42.721Z,6.20
2022-12-06T05:08:09.945Z,5.50
2022-12-06T05:10:37.032Z,5.60
2022-12-06T05:13:03.969Z,5.10
2022-12-06T05:15:30.957Z,6.10
2022-12-06T05:17:57.713Z,6.23
2022-12-06T05:20:24.265Z,6.10
2022-12-06T05:22:51.030Z,5.17
2022-12-06T05:25:17.650Z,6.33
2022-12-06T05:27:44.936Z,5.93
2022-12-06T05:30:12.477Z,5.77
2022-12-06T05:32:40.453Z,6.10
2022-12-06T05:35:08.882Z,6.17
2022-12-06T05:37:36.494Z,7.27
2022-12-06T05:40:04.038Z,7.77
2022-12-06T05:42:30.695Z,7.53
2022-12-06T05:44:57.241Z,6.80
2022-12-06T05:47:23.760Z,6.30
2022-12-06T05:49:51.125Z,6.67
2022-12-06T05:52:17.664Z,6.60
2022-12-06T05:54:44.204Z,7.40
2022-12-06T05:57:10.774Z,7.40
2022-12-06T05:59:37.325Z,7.60
2022-12-06T06:02:04.084Z,7.60
2022-12-06T06:04:30.773Z,7.60
2022-12-06T06:06:57.412Z,8.37
2022-12-06T06:09:27.346Z,8.07
2022-12-06T06:11:54.758Z,7.90
2022-12-06T06:14:21.357Z,8.90
2022-12-06T06:16:47.977Z,9.00
2022-12-06T06:19:14.562Z,8.07
2022-12-06T06:21:41.707Z,8.80
2022-12-06T06:24:08.367Z,9.00
2022-12-06T06:26:34.999Z,8.70
2022-12-06T06:29:01.485Z,9.37
2022-12-06T06:31:28.260Z,10.03
2022-12-06T06:33:54.790Z,8.37
2022-12-06T06:36:21.690Z,10.23
2022-12-06T06:38:48.210Z,10.20
2022-12-06T06:41:14.845Z,9.63
2022-12-06T06:43:41.372Z,8.67
2022-12-06T06:46:08.027Z,8.23
2022-12-06T06:48:37.920Z,9.10
2022-12-06T06:51:07.653Z,8.67
2022-12-06T06:53:34.387Z,9.47
2022-12-06T06:56:00.966Z,8.80
2022-12-06T06:58:27.503Z,8.57
2022-12-06T07:00:56.301Z,8.37
2022-12-06T07:03:24.211Z,7.43
2022-12-06T07:05:53.354Z,7.20
2022-12-06T07:08:20.452Z,7.20
2022-12-06T07:10:48.764Z,8.23
2022-12-06T07:13:16.587Z,6.50
2022-12-06T07:15:43.145Z,7.00
2022-12-06T07:18:10.234Z,6.83
2022-12-06T07:20:36.809Z,7.07
2022-12-06T07:23:05.054Z,6.53
2022-12-06T07:25:32.429Z,6.60
2022-12-06T07:27:59.190Z,7.10
2022-12-06T07:30:27.796Z,6.30
2022-12-06T07:32:54.707Z,6.47
2022-12-06T07:35:21.536Z,7.23
2022-12-06T07:37:48.784Z,7.00
2022-12-06T07:40:16.671Z,7.60
2022-12-06T07:43:01.644Z,7.13
2022-12-06T07:45:28.449Z,7.17
2022-12-06T07:47:55.476Z,6.77
2022-12-06T07:50:23.003Z,6.33
2022-12-06T07:52:50.652Z,6.50
2022-12-06T07:55:17.903Z,6.70
2022-12-06T07:57:44.666Z,6.40
2022-12-06T08:00:14.308Z,7.20
2022-12-06T08:02:41.281Z,7.80
2022-12-06T08:05:08.483Z,7.20
2022-12-06T08:07:35.128Z,7.07
2022-12-06T08:10:02.563Z,7.00
2022-12-06T08:12:32.031Z,7.43
2022-12-06T08:14:59.959Z,7.20
2022-12-06T08:17:27.521Z,8.13
2022-12-06T08:19:54.225Z,8.63
2022-12-06T08:22:21.804Z,7.83
2022-12-06T08:24:48.378Z,7.83
2022-12-06T08:27:14.948Z,9.60
2022-12-06T08:29:41.542Z,9.10
2022-12-06T08:32:08.058Z,9.80
2022-12-06T08:34:34.561Z,9.00
2022-12-06T08:37:03.606Z,9.73
2022-12-06T08:39:30.593Z,8.60
2022-12-06T08:42:00.129Z,9.40
2022-12-06T08:44:28.432Z,8.50
2022-12-06T08:46:56.096Z,9.40
2022-12-06T08:49:24.461Z,9.00
2022-12-06T08:51:52.287Z,9.87
2022-12-06T08:54:21.842Z,9.47
2022-12-06T08:56:49.901Z,8.90
2022-12-06T08:59:17.092Z,10.57
2022-12-06T09:01:45.053Z,10.13
2022-12-06T09:04:13.118Z,9.67
2022-12-06T09:06:42.257Z,9.93
2022-12-06T09:09:10.819Z,9.83
2022-12-06T09:11:39.345Z,9.70
2022-12-06T09:14:08.343Z,9.67
2022-12-06T09:16:35.613Z,9.33
2022-12-06T09:19:02.313Z,8.47
2022-12-06T09:21:33.494Z,8.33
2022-12-06T09:24:00.344Z,8.77
2022-12-06T09:26:28.229Z,8.27
2022-12-06T09:28:55.865Z,7.97
2022-12-06T09:31:23.115Z,7.60
2022-12-06T09:33:50.199Z,6.70
2022-12-06T09:36:25.522Z,5.30
2022-12-06T09:39:09.676Z,6.00
2022-12-06T09:42:35.054Z,5.37
2022-12-06T09:45:45.877Z,5.87
2022-12-06T09:48:49.738Z,6.20
2022-12-06T09:51:37.496Z,6.10
2022-12-06T09:54:09.675Z,6.23
2022-12-06T09:57:04.532Z,5.80
2022-12-06T09:59:39.755Z,5.97
2022-12-06T10:02:22.287Z,6.57
2022-12-06T10:05:26.667Z,7.37
2022-12-06T10:08:19.567Z,5.83
2022-12-06T10:10:52.110Z,6.27
2022-12-06T10:13:40.682Z,7.30
2022-12-06T10:16:35.062Z,6.70
2022-12-06T10:19:36.597Z,7.60
2022-12-06T10:22:45.281Z,7.57
2022-12-06T10:25:24.786Z,7.60
2022-12-06T10:27:57.336Z,7.50
2022-12-06T10:30:23.937Z,6.70
2022-12-06T10:33:05.331Z,8.30
2022-12-06T10:35:41.173Z,7.70
2022-12-06T10:38:25.111Z,7.67
2022-12-06T10:41:05.037Z,7.50
2022-12-06T10:43:50.276Z,8.47
2022-12-06T10:46:52.095Z,8.00
2022-12-06T10:49:41.614Z,8.80
2022-12-06T10:52:22.983Z,8.67
2022-12-06T10:55:16.357Z,8.47
2022-12-06T10:57:57.518Z,7.17
2022-12-06T11:00:30.978Z,8.30
2022-12-06T11:03:19.113Z,9.63
2022-12-06T11:05:53.002Z,7.90
2022-12-06T11:08:38.194Z,9.00
2022-12-06T11:11:10.372Z,8.00
2022-12-06T11:13:47.949Z,7.97
2022-12-06T11:16:26.565Z,7.70
2022-12-06T11:18:57.743Z,8.00
2022-12-06T11:21:34.388Z,8.90
2022-12-06T11:24:26.562Z,6.63
2022-12-06T11:27:13.649Z,7.37
2022-12-06T11:29:42.007Z,7.40
2022-12-06T11:32:09.224Z,7.80
2022-12-06T11:35:08.241Z,6.97
2022-12-06T11:37:40.109Z,6.90
2022-12-06T11:40:30.210Z,6.57
2022-12-06T11:43:02.048Z,5.70
2022-12-06T11:45:39.607Z,7.27
2022-12-06T11:48:34.201Z,5.83
2022-12-06T11:51:00.941Z,6.10
2022-12-06T11:53:35.478Z,6.43
2022-12-06T11:56:26.477Z,6.63
2022-12-06T11:59:03.795Z,5.50
2022-12-06T12:01:48.468Z,5.60
2022-12-06T12:04:39.239Z,5.33
2022-12-06T12:07:18.167Z,5.17
2022-12-06T12:09:56.525Z,5.00
2022-12-06T12:12:46.685Z,4.77
2022-12-06T12:15:18.923Z,5.20
2022-12-06T12:17:48.781Z,5.40
2022-12-06T12:20:25.852Z,4.73
2022-12-06T12:23:15.524Z,5.67
2022-12-06T12:25:44.936Z,5.40
2022-12-06T12:28:34.038Z,5.40
2022-12-06T12:31:15.537Z,4.07
2022-12-06T12:33:42.043Z,4.70
2022-12-06T12:36:16.919Z,5.53
2022-12-06T12:38:53.571Z,4.50
2022-12-06T12:41:25.908Z,4.83
2022-12-06T12:44:35.822Z,5.17
2022-12-06T12:47:15.274Z,4.77
2022-12-06T12:49:42.017Z,4.57
2022-12-06T12:52:30.672Z,4.23
2022-12-06T12:55:00.848Z,5.07
2022-12-06T12:57:28.114Z,4.00
2022-12-06T12:59:54.959Z,5.20
2022-12-06T13:02:27.667Z,4.60
2022-12-06T13:05:31.273Z,4.90
2022-12-06T13:07:52.376Z,4.60
2022-12-06T13:10:29.935Z,4.67
2022-12-06T13:13:01.714Z,4.40
2022-12-06T13:15:36.585Z,3.90
2022-12-06T13:18:21.447Z,4.07
2022-12-06T13:20:50.605Z,4.10
2022-12-06T13:23:23.843Z,4.70
2022-12-06T13:26:16.418Z,3.77
2022-12-06T13:28:48.806Z,3.30
2022-12-06T13:31:18.411Z,3.30
2022-12-06T13:34:00.489Z,3.83
2022-12-06T13:36:32.844Z,4.00
2022-12-06T13:38:59.970Z,3.40
2022-12-06T13:41:54.659Z,3.87
2022-12-06T13:44:52.647Z,3.90
2022-12-06T13:47:28.448Z,3.37
2022-12-06T13:50:00.587Z,4.47
2022-12-06T13:52:42.253Z,5.80
2022-12-06T13:55:23.875Z,5.40
2022-12-06T13:57:59.634Z,5.53
2022-12-06T14:00:29.452Z,4.30
2022-12-06T14:02:57.175Z,4.03
2022-12-06T14:06:01.235Z,3.97
2022-12-06T14:08:33.541Z,3.00
2022-12-06T14:11:25.902Z,3.50
2022-12-06T14:13:55.156Z,2.97
2022-12-06T14:16:33.219Z,3.83
2022-12-06T14:19:00.385Z,2.70
2022-12-06T14:21:31.053Z,3.67
2022-12-06T14:23:57.735Z,2.97
2022-12-06T14:26:27.536Z,3.73
2022-12-06T14:28:57.069Z,3.50
2022-12-06T14:31:38.249Z,3.80
2022-12-06T14:34:05.163Z,2.83
2022-12-06T14:36:34.900Z,5.23
2022-12-06T14:39:17.705Z,5.93
2022-12-06T14:42:17.337Z,7.50
2022-12-06T14:44:50.321Z,5.00
2022-12-06T14:47:19.592Z,6.30
2022-12-06T14:50:13.343Z,5.60
2022-12-06T14:53:00.559Z,5.73
2022-12-06T14:55:29.969Z,6.60
2022-12-06T14:57:59.541Z,4.80
2022-12-06T15:00:34.600Z,5.97
2022-12-06T15:03:07.667Z,6.73
2022-12-06T15:05:51.914Z,5.50
2022-12-06T15:08:33.152Z,5.10
2022-12-06T15:11:13.218Z,4.90
2022-12-06T15:13:40.101Z,4.37
2022-12-06T15:16:09.599Z,3.60
2022-12-06T15:18:58.151Z,3.13
2022-12-06T15:21:24.838Z,2.97
2022-12-06T15:23:56.063Z,2.80
2022-12-06T15:26:24.771Z,3.20
2022-12-06T15:28:52.013Z,3.00
2022-12-06T15:31:24.333Z,3.40
2022-12-06T15:33:51.006Z,3.50
2022-12-06T15:36:20.794Z,3.63
2022-12-06T15:38:48.006Z,4.10
2022-12-06T15:41:20.962Z,3.70
2022-12-06T15:43:48.465Z,5.10
2022-12-06T15:46:26.381Z,6.20
2022-12-06T15:48:53.984Z,6.33
2022-12-06T15:51:24.834Z,7.00
2022-12-06T15:53:51.895Z,5.30
2022-12-06T15:56:21.565Z,5.00
2022-12-06T15:58:49.035Z,5.20
2022-12-06T16:01:24.253Z,7.70
2022-12-06T16:03:54.035Z,7.90
2022-12-06T16:06:22.676Z,8.20
2022-12-06T16:08:49.309Z,7.10
2022-12-06T16:11:20.821Z,9.47
2022-12-06T16:13:48.059Z,7.77
2022-12-06T16:16:16.420Z,7.67
2022-12-06T16:18:43.299Z,6.83
2022-12-06T16:21:19.292Z,7.60
2022-12-06T16:24:16.457Z,5.97
2022-12-06T16:26:45.014Z,5.60
2022-12-06T16:29:18.970Z,5.63
2022-12-06T16:31:46.031Z,5.00
2022-12-06T16:34:13.655Z,5.10
2022-12-06T16:37:02.774Z,4.77
2022-12-06T16:39:31.966Z,5.20
2022-12-06T16:41:58.588Z,4.73
2022-12-06T16:44:25.287Z,5.60
2022-12-06T16:46:52.720Z,6.00
2022-12-06T16:52:12.299Z,6.70
2022-12-06T16:54:41.213Z,5.40
2022-12-06T16:57:10.517Z,6.40
2022-12-06T16:59:37.101Z,12.37
2022-12-06T17:02:07.227Z,18.27
2022-12-06T17:04:38.165Z,15.35
2022-12-06T17:07:05.117Z,13.53
2022-12-06T17:09:31.705Z,11.27
2022-12-06T17:12:06.232Z,10.90
2022-12-06T17:14:35.852Z,10.23
2022-12-06T17:17:04.096Z,10.13
2022-12-06T17:19:32.995Z,11.60
2022-12-06T17:22:02.160Z,10.67
2022-12-06T17:24:28.936Z,12.83
2022-12-06T17:26:56.386Z,13.00
2022-12-06T17:29:23.674Z,10.20
2022-12-06T17:31:51.325Z,10.70
2022-12-06T17:34:19.293Z,21.23
2022-12-06T17:36:46.925Z,24.57
2022-12-06T17:39:16.440Z,28.70
2022-12-06T17:42:02.252Z,33.73
2022-12-06T17:44:29.531Z,22.50
2022-12-06T17:46:56.090Z,22.07
2022-12-06T17:49:25.089Z,21.93
2022-12-06T17:51:52.061Z,27.30
2022-12-06T17:54:19.579Z,20.67
2022-12-06T17:56:48.330Z,22.17
2022-12-06T17:59:20.264Z,20.43
2022-12-06T18:02:14.265Z,22.03
2022-12-06T18:04:34.959Z,21.10
2022-12-06T18:07:01.821Z,14.60
2022-12-06T18:09:28.359Z,13.07
2022-12-06T18:11:55.654Z,18.97
2022-12-06T18:14:22.898Z,13.90
2022-12-06T18:16:49.657Z,13.50
2022-12-06T18:19:21.531Z,11.03
2022-12-06T18:21:49.169Z,10.30
2022-12-06T18:24:22.727Z,9.60
2022-12-06T18:26:51.412Z,9.80
2022-12-06T18:29:21.240Z,10.30
2022-12-06T18:31:48.358Z,11.53
2022-12-06T18:34:15.481Z,8.93
2022-12-06T18:39:30.797Z,8.30
2022-12-06T18:41:57.603Z,8.67
2022-12-06T18:44:24.769Z,7.60
2022-12-06T18:46:51.906Z,9.10
2022-12-06T18:49:18.671Z,8.20
2022-12-06T18:51:45.404Z,9.27
2022-12-06T18:54:13.808Z,8.97
2022-12-06T18:56:40.815Z,7.77
2022-12-06T18:59:08.573Z,8.37
2022-12-06T19:01:38.093Z,8.00
2022-12-06T19:04:07.195Z,9.17
2022-12-06T19:06:36.854Z,8.40
2022-12-06T19:09:09.995Z,10.87
2022-12-06T19:11:39.150Z,14.63
2022-12-06T19:14:06.873Z,13.20
2022-12-06T19:16:39.972Z,17.20
2022-12-06T19:19:15.871Z,18.80
2022-12-06T19:21:43.808Z,11.87
2022-12-06T19:24:12.723Z,10.80
2022-12-06T19:26:39.462Z,12.07
2022-12-06T19:29:06.584Z,13.10
2022-12-06T19:31:33.264Z,12.73
2022-12-06T19:34:00.463Z,10.97
2022-12-06T19:36:28.991Z,8.63
2022-12-06T19:39:01.536Z,7.70
2022-12-06T19:41:28.993Z,7.17
2022-12-06T19:44:14.313Z,8.77
2022-12-06T19:46:42.612Z,7.93
2022-12-06T19:49:12.098Z,8.00
2022-12-06T19:51:40.630Z,7.90
2022-12-06T19:54:08.870Z,7.30
2022-12-06T19:56:35.785Z,9.53
2022-12-06T19:59:11.409Z,8.93
2022-12-06T20:01:40.151Z,7.80
2022-12-06T20:04:07.240Z,9.57
2022-12-06T20:06:34.966Z,9.00
2022-12-06T20:09:01.629Z,9.07
2022-12-06T20:11:47.265Z,9.00
2022-12-06T20:14:18.522Z,10.43
2022-12-06T20:16:45.822Z,9.23
2022-12-06T20:19:15.660Z,8.83
2022-12-06T20:21:43.456Z,10.50
2022-12-06T20:24:15.865Z,10.67
2022-12-06T20:26:42.805Z,10.23
2022-12-06T20:29:10.338Z,12.97
2022-12-06T20:31:36.922Z,13.60
2022-12-06T20:34:08.951Z,16.73
2022-12-06T20:36:38.401Z,14.30
2022-12-06T20:39:05.420Z,10.97
2022-12-06T20:41:33.051Z,9.80
2022-12-06T20:44:01.441Z,10.20
2022-12-06T20:46:30.864Z,8.87
2022-12-06T20:49:02.820Z,9.53
2022-12-06T20:51:30.585Z,9.83
2022-12-06T20:54:00.245Z,8.37
2022-12-06T20:56:30.049Z,10.03
2022-12-06T20:58:59.265Z,9.90
2022-12-06T21:01:28.723Z,9.70
2022-12-06T21:03:55.646Z,10.63
2022-12-06T21:06:24.337Z,11.60
2022-12-06T21:08:52.024Z,12.97
2022-12-06T21:11:23.038Z,10.10
2022-12-06T21:13:56.554Z,10.67
2022-12-06T21:16:28.758Z,10.07
2022-12-06T21:18:58.500Z,10.70
2022-12-06T21:21:28.500Z,11.43
2022-12-06T21:23:55.192Z,11.40
2022-12-06T21:26:21.783Z,10.70
2022-12-06T21:28:48.444Z,9.90
2022-12-06T21:31:15.117Z,10.23
2022-12-06T21:33:41.812Z,9.70
2022-12-06T21:36:09.056Z,9.67
2022-12-06T21:38:36.665Z,11.50
2022-12-06T21:41:08.331Z,10.40
2022-12-06T21:43:36.038Z,10.20
2022-12-06T21:46:10.292Z,9.43
2022-12-06T21:48:38.511Z,13.40
2022-12-06T21:51:07.954Z,11.27
2022-12-06T21:53:35.751Z,11.70
2022-12-06T21:56:16.979Z,9.90
2022-12-06T21:58:44.399Z,9.70
2022-12-06T22:01:13.704Z,11.30
2022-12-06T22:03:40.735Z,9.73
2022-12-06T22:06:12.430Z,9.23
2022-12-06T22:08:41.387Z,9.87
2022-12-06T22:11:17.932Z,9.60
2022-12-06T22:13:45.894Z,8.87
2022-12-06T22:16:13.448Z,9.03
2022-12-06T22:18:45.428Z,9.13
2022-12-06T22:21:21.078Z,9.97
2022-12-06T22:23:48.189Z,9.83
2022-12-06T22:26:21.617Z,9.10
2022-12-06T22:28:49.161Z,9.57
2022-12-06T22:31:24.982Z,9.53
2022-12-06T22:33:52.728Z,9.17
2022-12-06T22:36:21.068Z,10.50
2022-12-06T22:38:49.901Z,10.30
2022-12-06T22:41:17.296Z,9.10
2022-12-06T22:43:44.331Z,9.23
2022-12-06T22:46:15.047Z,8.40
2022-12-06T22:48:42.786Z,11.30
2022-12-06T22:51:10.636Z,11.10
2022-12-06T22:53:38.132Z,9.60
2022-12-06T22:56:04.972Z,9.10
2022-12-06T22:58:31.621Z,9.13
2022-12-06T23:00:58.298Z,9.80
2022-12-06T23:03:25.695Z,10.20
2022-12-06T23:05:59.979Z,9.40
2022-12-06T23:08:27.000Z,10.43
2022-12-06T23:11:09.366Z,9.00
2022-12-06T23:13:36.571Z,10.73
2022-12-06T23:16:05.877Z,11.23
2022-12-06T23:18:33.418Z,10.27
2022-12-06T23:21:04.191Z,10.87
2022-12-06T23:23:31.340Z,10.70
2022-12-06T23:26:06.362Z,10.57
2022-12-06T23:28:33.752Z,10.70
2022-12-06T23:31:08.218Z,11.00
2022-12-06T23:33:35.547Z,10.77
2022-12-06T23:36:11.845Z,11.10
2022-12-06T23:38:39.083Z,12.43
2022-12-06T23:41:11.579Z,11.60
2022-12-06T23:43:39.069Z,10.57
2022-12-06T23:46:07.895Z,12.37
2022-12-06T23:48:35.637Z,11.23
2022-12-06T23:51:30.740Z,12.20
2022-12-06T23:53:59.191Z,12.37
2022-12-06T23:56:31.777Z,12.33
2022-12-06T23:58:59.626Z,11.83
